sensor_id;sensor_type;location;lat;lon;timestamp;P1;durP1;ratioP1;P2;durP2;ratioP2
17127;SDS011;8679;50.842;4.322;2023-06-24T00:00:59;1.45;;;1.10;;
17127;SDS011;8679;50.842;4.322;2023-06-24T00:03:24;1.92;;;1.27;;
17127;SDS011;8679;50.842;4.322;2023-06-24T00:05:50;1.42;;;1.02;;
17127;SDS011;8679;50.842;4.322;2023-06-24T00:08:16;1.50;;;1.10;;
17127;SDS011;8679;50.842;4.322;2023-06-24T00:10:45;1.40;;;1.17;;
17127;SDS011;8679;50.842;4.322;2023-06-24T00:13:11;1.38;;;0.90;;
17127;SDS011;8679;50.842;4.322;2023-06-24T00:15:38;1.52;;;0.90;;
17127;SDS011;8679;50.842;4.322;2023-06-24T00:18:08;1.20;;;0.88;;
17127;SDS011;8679;50.842;4.322;2023-06-24T00:20:36;0.90;;;0.80;;
17127;SDS011;8679;50.842;4.322;2023-06-24T00:23:03;1.45;;;1.05;;
17127;SDS011;8679;50.842;4.322;2023-06-24T00:25:29;1.67;;;1.05;;
17127;SDS011;8679;50.842;4.322;2023-06-24T00:27:55;2.22;;;0.90;;
17127;SDS011;8679;50.842;4.322;2023-06-24T00:30:21;1.45;;;0.77;;
17127;SDS011;8679;50.842;4.322;2023-06-24T00:32:47;1.73;;;1.00;;
17127;SDS011;8679;50.842;4.322;2023-06-24T00:35:13;1.73;;;0.80;;
17127;SDS011;8679;50.842;4.322;2023-06-24T00:37:39;1.20;;;0.98;;
17127;SDS011;8679;50.842;4.322;2023-06-24T00:40:05;0.88;;;0.80;;
17127;SDS011;8679;50.842;4.322;2023-06-24T00:42:31;1.38;;;1.13;;
17127;SDS011;8679;50.842;4.322;2023-06-24T00:44:57;1.95;;;1.00;;
17127;SDS011;8679;50.842;4.322;2023-06-24T00:47:23;1.60;;;1.25;;
17127;SDS011;8679;50.842;4.322;2023-06-24T00:49:49;0.95;;;0.88;;
17127;SDS011;8679;50.842;4.322;2023-06-24T00:52:16;3.38;;;1.30;;
17127;SDS011;8679;50.842;4.322;2023-06-24T00:54:44;1.75;;;1.00;;
17127;SDS011;8679;50.842;4.322;2023-06-24T00:57:10;1.40;;;1.00;;
17127;SDS011;8679;50.842;4.322;2023-06-24T00:59:37;1.58;;;1.00;;
17127;SDS011;8679;50.842;4.322;2023-06-24T01:02:03;1.95;;;0.98;;
17127;SDS011;8679;50.842;4.322;2023-06-24T01:04:30;3.63;;;2.15;;
17127;SDS011;8679;50.842;4.322;2023-06-24T01:06:58;2.63;;;1.63;;
17127;SDS011;8679;50.842;4.322;2023-06-24T01:09:23;2.10;;;1.20;;
17127;SDS011;8679;50.842;4.322;2023-06-24T01:11:49;3.40;;;1.35;;
17127;SDS011;8679;50.842;4.322;2023-06-24T01:14:15;2.15;;;1.40;;
17127;SDS011;8679;50.842;4.322;2023-06-24T01:16:59;1.83;;;1.20;;
17127;SDS011;8679;50.842;4.322;2023-06-24T01:19:54;1.90;;;1.23;;
17127;SDS011;8679;50.842;4.322;2023-06-24T01:25:33;2.75;;;1.40;;
17127;SDS011;8679;50.842;4.322;2023-06-24T01:33:39;2.60;;;1.65;;
17127;SDS011;8679;50.842;4.322;2023-06-24T01:36:12;2.08;;;1.23;;
17127;SDS011;8679;50.842;4.322;2023-06-24T01:38:52;1.88;;;1.63;;
17127;SDS011;8679;50.842;4.322;2023-06-24T01:41:31;1.42;;;1.25;;
17127;SDS011;8679;50.842;4.322;2023-06-24T01:44:01;2.70;;;1.80;;
17127;SDS011;8679;50.842;4.322;2023-06-24T01:46:28;2.08;;;1.30;;
17127;SDS011;8679;50.842;4.322;2023-06-24T01:48:55;3.30;;;1.67;;
17127;SDS011;8679;50.842;4.322;2023-06-24T01:51:26;1.92;;;1.42;;
17127;SDS011;8679;50.842;4.322;2023-06-24T01:53:54;2.25;;;1.25;;
17127;SDS011;8679;50.842;4.322;2023-06-24T01:56:27;2.28;;;1.40;;
17127;SDS011;8679;50.842;4.322;2023-06-24T01:58:54;4.72;;;2.00;;
17127;SDS011;8679;50.842;4.322;2023-06-24T02:01:23;2.72;;;1.52;;
17127;SDS011;8679;50.842;4.322;2023-06-24T02:03:50;1.73;;;1.00;;
17127;SDS011;8679;50.842;4.322;2023-06-24T02:06:17;2.28;;;1.48;;
17127;SDS011;8679;50.842;4.322;2023-06-24T02:08:44;1.73;;;1.40;;
17127;SDS011;8679;50.842;4.322;2023-06-24T02:11:13;1.85;;;1.00;;
17127;SDS011;8679;50.842;4.322;2023-06-24T02:13:40;1.88;;;1.40;;
17127;SDS011;8679;50.842;4.322;2023-06-24T02:16:08;1.10;;;0.95;;
17127;SDS011;8679;50.842;4.322;2023-06-24T02:18:35;3.25;;;1.50;;
17127;SDS011;8679;50.842;4.322;2023-06-24T02:21:03;1.38;;;1.10;;
17127;SDS011;8679;50.842;4.322;2023-06-24T02:23:30;2.28;;;1.42;;
17127;SDS011;8679;50.842;4.322;2023-06-24T02:25:59;2.05;;;1.33;;
17127;SDS011;8679;50.842;4.322;2023-06-24T02:28:25;1.60;;;1.10;;
17127;SDS011;8679;50.842;4.322;2023-06-24T02:30:52;2.78;;;1.40;;
17127;SDS011;8679;50.842;4.322;2023-06-24T02:33:19;3.60;;;1.70;;
17127;SDS011;8679;50.842;4.322;2023-06-24T02:35:44;4.07;;;1.40;;
17127;SDS011;8679;50.842;4.322;2023-06-24T02:38:11;1.42;;;1.10;;
17127;SDS011;8679;50.842;4.322;2023-06-24T02:40:36;4.93;;;2.03;;
17127;SDS011;8679;50.842;4.322;2023-06-24T02:43:02;1.40;;;1.00;;
17127;SDS011;8679;50.842;4.322;2023-06-24T02:45:28;1.60;;;1.17;;
17127;SDS011;8679;50.842;4.322;2023-06-24T02:47:54;1.88;;;1.42;;
17127;SDS011;8679;50.842;4.322;2023-06-24T02:50:22;4.30;;;1.55;;
17127;SDS011;8679;50.842;4.322;2023-06-24T02:52:49;1.42;;;1.02;;
17127;SDS011;8679;50.842;4.322;2023-06-24T02:55:16;3.35;;;1.98;;
17127;SDS011;8679;50.842;4.322;2023-06-24T02:57:42;3.13;;;1.55;;
17127;SDS011;8679;50.842;4.322;2023-06-24T03:00:09;1.27;;;1.10;;
17127;SDS011;8679;50.842;4.322;2023-06-24T03:02:38;1.30;;;1.00;;
17127;SDS011;8679;50.842;4.322;2023-06-24T03:05:05;3.22;;;1.15;;
17127;SDS011;8679;50.842;4.322;2023-06-24T03:07:32;2.55;;;1.40;;
17127;SDS011;8679;50.842;4.322;2023-06-24T03:10:02;2.70;;;1.15;;
17127;SDS011;8679;50.842;4.322;2023-06-24T03:12:30;2.28;;;1.52;;
17127;SDS011;8679;50.842;4.322;2023-06-24T03:14:56;1.67;;;1.17;;
17127;SDS011;8679;50.842;4.322;2023-06-24T03:17:21;1.30;;;0.80;;
17127;SDS011;8679;50.842;4.322;2023-06-24T03:19:48;1.83;;;1.40;;
17127;SDS011;8679;50.842;4.322;2023-06-24T03:22:13;2.17;;;1.48;;
17127;SDS011;8679;50.842;4.322;2023-06-24T03:24:39;3.25;;;1.77;;
17127;SDS011;8679;50.842;4.322;2023-06-24T03:27:04;1.63;;;1.33;;
17127;SDS011;8679;50.842;4.322;2023-06-24T03:29:31;1.90;;;1.30;;
17127;SDS011;8679;50.842;4.322;2023-06-24T03:31:56;5.30;;;2.47;;
17127;SDS011;8679;50.842;4.322;2023-06-24T03:34:24;3.38;;;1.52;;
17127;SDS011;8679;50.842;4.322;2023-06-24T03:36:52;1.02;;;0.90;;
17127;SDS011;8679;50.842;4.322;2023-06-24T03:39:19;2.83;;;1.25;;
17127;SDS011;8679;50.842;4.322;2023-06-24T03:41:45;1.88;;;1.27;;
17127;SDS011;8679;50.842;4.322;2023-06-24T03:44:11;1.98;;;1.33;;
17127;SDS011;8679;50.842;4.322;2023-06-24T03:46:38;1.63;;;1.10;;
17127;SDS011;8679;50.842;4.322;2023-06-24T03:49:04;2.45;;;1.50;;
17127;SDS011;8679;50.842;4.322;2023-06-24T03:51:30;2.05;;;1.38;;
17127;SDS011;8679;50.842;4.322;2023-06-24T03:53:56;1.58;;;1.15;;
17127;SDS011;8679;50.842;4.322;2023-06-24T03:56:22;2.35;;;1.50;;
17127;SDS011;8679;50.842;4.322;2023-06-24T03:58:47;2.38;;;1.70;;
17127;SDS011;8679;50.842;4.322;2023-06-24T04:01:13;1.98;;;1.65;;
17127;SDS011;8679;50.842;4.322;2023-06-24T04:03:39;1.73;;;1.33;;
17127;SDS011;8679;50.842;4.322;2023-06-24T04:06:05;2.47;;;1.77;;
17127;SDS011;8679;50.842;4.322;2023-06-24T04:08:31;1.30;;;1.20;;
17127;SDS011;8679;50.842;4.322;2023-06-24T04:10:57;2.20;;;1.50;;
17127;SDS011;8679;50.842;4.322;2023-06-24T04:13:28;4.07;;;1.73;;
17127;SDS011;8679;50.842;4.322;2023-06-24T04:15:54;2.20;;;1.02;;
17127;SDS011;8679;50.842;4.322;2023-06-24T04:18:20;1.67;;;1.40;;
17127;SDS011;8679;50.842;4.322;2023-06-24T04:20:46;2.30;;;1.20;;
17127;SDS011;8679;50.842;4.322;2023-06-24T04:23:12;2.85;;;1.17;;
17127;SDS011;8679;50.842;4.322;2023-06-24T04:25:39;3.25;;;1.50;;
17127;SDS011;8679;50.842;4.322;2023-06-24T04:28:05;2.35;;;1.40;;
17127;SDS011;8679;50.842;4.322;2023-06-24T04:30:31;1.42;;;1.30;;
17127;SDS011;8679;50.842;4.322;2023-06-24T04:33:00;1.77;;;1.20;;
17127;SDS011;8679;50.842;4.322;2023-06-24T04:35:26;1.92;;;1.30;;
17127;SDS011;8679;50.842;4.322;2023-06-24T04:37:52;4.15;;;1.77;;
17127;SDS011;8679;50.842;4.322;2023-06-24T04:40:18;3.22;;;1.63;;
17127;SDS011;8679;50.842;4.322;2023-06-24T04:42:44;2.30;;;1.27;;
17127;SDS011;8679;50.842;4.322;2023-06-24T04:45:10;3.80;;;2.00;;
17127;SDS011;8679;50.842;4.322;2023-06-24T04:47:36;1.88;;;1.45;;
17127;SDS011;8679;50.842;4.322;2023-06-24T04:50:02;3.60;;;1.45;;
17127;SDS011;8679;50.842;4.322;2023-06-24T04:52:28;2.33;;;1.17;;
17127;SDS011;8679;50.842;4.322;2023-06-24T04:54:54;2.35;;;1.70;;
17127;SDS011;8679;50.842;4.322;2023-06-24T04:57:27;2.63;;;1.83;;
17127;SDS011;8679;50.842;4.322;2023-06-24T04:59:54;1.95;;;1.30;;
17127;SDS011;8679;50.842;4.322;2023-06-24T05:02:19;2.50;;;1.50;;
17127;SDS011;8679;50.842;4.322;2023-06-24T05:04:45;2.70;;;1.90;;
17127;SDS011;8679;50.842;4.322;2023-06-24T05:07:11;2.55;;;1.15;;
17127;SDS011;8679;50.842;4.322;2023-06-24T05:09:37;1.60;;;1.25;;
17127;SDS011;8679;50.842;4.322;2023-06-24T05:12:03;3.22;;;1.55;;
17127;SDS011;8679;50.842;4.322;2023-06-24T05:14:29;1.45;;;1.35;;
17127;SDS011;8679;50.842;4.322;2023-06-24T05:16:55;1.75;;;1.33;;
17127;SDS011;8679;50.842;4.322;2023-06-24T05:19:21;1.98;;;1.35;;
17127;SDS011;8679;50.842;4.322;2023-06-24T05:21:46;4.35;;;1.77;;
17127;SDS011;8679;50.842;4.322;2023-06-24T05:24:12;3.03;;;2.20;;
17127;SDS011;8679;50.842;4.322;2023-06-24T05:26:38;1.63;;;1.45;;
17127;SDS011;8679;50.842;4.322;2023-06-24T05:29:03;1.95;;;1.15;;
17127;SDS011;8679;50.842;4.322;2023-06-24T05:31:29;1.13;;;0.82;;
17127;SDS011;8679;50.842;4.322;2023-06-24T05:33:54;2.22;;;1.17;;
17127;SDS011;8679;50.842;4.322;2023-06-24T05:36:20;2.10;;;1.08;;
17127;SDS011;8679;50.842;4.322;2023-06-24T05:38:46;1.63;;;1.20;;
17127;SDS011;8679;50.842;4.322;2023-06-24T05:41:13;2.35;;;1.33;;
17127;SDS011;8679;50.842;4.322;2023-06-24T05:43:39;2.70;;;1.35;;
17127;SDS011;8679;50.842;4.322;2023-06-24T05:46:07;2.45;;;1.30;;
17127;SDS011;8679;50.842;4.322;2023-06-24T05:48:33;1.65;;;1.13;;
17127;SDS011;8679;50.842;4.322;2023-06-24T05:50:58;2.17;;;1.15;;
17127;SDS011;8679;50.842;4.322;2023-06-24T05:53:24;2.40;;;1.58;;
17127;SDS011;8679;50.842;4.322;2023-06-24T05:55:50;1.02;;;0.90;;
17127;SDS011;8679;50.842;4.322;2023-06-24T05:58:15;1.92;;;1.33;;
17127;SDS011;8679;50.842;4.322;2023-06-24T06:00:41;3.00;;;1.88;;
17127;SDS011;8679;50.842;4.322;2023-06-24T06:03:07;1.90;;;1.23;;
17127;SDS011;8679;50.842;4.322;2023-06-24T06:05:32;1.80;;;1.20;;
17127;SDS011;8679;50.842;4.322;2023-06-24T06:07:58;1.70;;;1.45;;
17127;SDS011;8679;50.842;4.322;2023-06-24T06:10:24;2.83;;;1.40;;
17127;SDS011;8679;50.842;4.322;2023-06-24T06:12:49;1.48;;;0.98;;
17127;SDS011;8679;50.842;4.322;2023-06-24T06:15:15;1.40;;;1.20;;
17127;SDS011;8679;50.842;4.322;2023-06-24T06:17:41;2.35;;;1.40;;
17127;SDS011;8679;50.842;4.322;2023-06-24T06:20:06;1.95;;;1.00;;
17127;SDS011;8679;50.842;4.322;2023-06-24T06:22:32;1.42;;;0.98;;
17127;SDS011;8679;50.842;4.322;2023-06-24T06:25:05;1.58;;;1.00;;
17127;SDS011;8679;50.842;4.322;2023-06-24T06:27:32;3.10;;;1.10;;
17127;SDS011;8679;50.842;4.322;2023-06-24T06:29:57;1.70;;;0.90;;
17127;SDS011;8679;50.842;4.322;2023-06-24T06:32:24;3.03;;;1.20;;
17127;SDS011;8679;50.842;4.322;2023-06-24T06:34:49;2.50;;;1.25;;
17127;SDS011;8679;50.842;4.322;2023-06-24T06:37:15;2.00;;;1.02;;
17127;SDS011;8679;50.842;4.322;2023-06-24T06:39:41;1.00;;;0.90;;
17127;SDS011;8679;50.842;4.322;2023-06-24T06:42:07;1.90;;;1.30;;
17127;SDS011;8679;50.842;4.322;2023-06-24T06:44:32;2.65;;;1.60;;
17127;SDS011;8679;50.842;4.322;2023-06-24T06:46:58;1.60;;;1.00;;
17127;SDS011;8679;50.842;4.322;2023-06-24T06:49:24;1.27;;;1.00;;
17127;SDS011;8679;50.842;4.322;2023-06-24T06:51:51;3.15;;;1.05;;
17127;SDS011;8679;50.842;4.322;2023-06-24T06:54:19;1.20;;;1.00;;
17127;SDS011;8679;50.842;4.322;2023-06-24T06:56:44;1.98;;;1.20;;
17127;SDS011;8679;50.842;4.322;2023-06-24T06:59:10;1.40;;;1.10;;
17127;SDS011;8679;50.842;4.322;2023-06-24T07:01:36;1.70;;;0.98;;
17127;SDS011;8679;50.842;4.322;2023-06-24T07:04:02;1.45;;;0.88;;
17127;SDS011;8679;50.842;4.322;2023-06-24T07:06:27;1.98;;;1.25;;
17127;SDS011;8679;50.842;4.322;2023-06-24T07:08:53;1.45;;;1.25;;
17127;SDS011;8679;50.842;4.322;2023-06-24T07:11:18;1.83;;;0.90;;
17127;SDS011;8679;50.842;4.322;2023-06-24T07:13:44;2.10;;;1.38;;
17127;SDS011;8679;50.842;4.322;2023-06-24T07:16:11;2.15;;;1.00;;
17127;SDS011;8679;50.842;4.322;2023-06-24T07:18:37;0.80;;;0.80;;
17127;SDS011;8679;50.842;4.322;2023-06-24T07:21:02;1.33;;;0.80;;
17127;SDS011;8679;50.842;4.322;2023-06-24T07:23:28;1.35;;;0.90;;
17127;SDS011;8679;50.842;4.322;2023-06-24T07:25:54;2.08;;;1.10;;
17127;SDS011;8679;50.842;4.322;2023-06-24T07:28:20;0.93;;;0.73;;
17127;SDS011;8679;50.842;4.322;2023-06-24T07:30:45;0.73;;;0.63;;
17127;SDS011;8679;50.842;4.322;2023-06-24T07:33:11;0.90;;;0.52;;
17127;SDS011;8679;50.842;4.322;2023-06-24T07:35:36;1.50;;;0.82;;
17127;SDS011;8679;50.842;4.322;2023-06-24T07:38:02;0.90;;;0.68;;
17127;SDS011;8679;50.842;4.322;2023-06-24T07:40:28;1.27;;;0.82;;
17127;SDS011;8679;50.842;4.322;2023-06-24T07:42:53;4.90;;;1.10;;
17127;SDS011;8679;50.842;4.322;2023-06-24T07:45:19;0.75;;;0.70;;
17127;SDS011;8679;50.842;4.322;2023-06-24T07:47:45;0.57;;;0.52;;
17127;SDS011;8679;50.842;4.322;2023-06-24T07:50:10;1.40;;;0.77;;
17127;SDS011;8679;50.842;4.322;2023-06-24T07:52:37;0.63;;;0.63;;
17127;SDS011;8679;50.842;4.322;2023-06-24T07:55:03;2.10;;;0.80;;
17127;SDS011;8679;50.842;4.322;2023-06-24T07:57:29;1.23;;;0.70;;
17127;SDS011;8679;50.842;4.322;2023-06-24T07:59:55;1.05;;;0.70;;
17127;SDS011;8679;50.842;4.322;2023-06-24T08:02:21;1.52;;;0.82;;
17127;SDS011;8679;50.842;4.322;2023-06-24T08:04:46;0.82;;;0.52;;
17127;SDS011;8679;50.842;4.322;2023-06-24T08:07:12;0.85;;;0.70;;
17127;SDS011;8679;50.842;4.322;2023-06-24T08:09:38;1.25;;;0.70;;
17127;SDS011;8679;50.842;4.322;2023-06-24T08:12:04;2.10;;;1.00;;
17127;SDS011;8679;50.842;4.322;2023-06-24T08:14:29;0.60;;;0.40;;
17127;SDS011;8679;50.842;4.322;2023-06-24T08:16:55;0.95;;;0.88;;
17127;SDS011;8679;50.842;4.322;2023-06-24T08:19:21;0.77;;;0.77;;
17127;SDS011;8679;50.842;4.322;2023-06-24T08:21:46;0.60;;;0.57;;
17127;SDS011;8679;50.842;4.322;2023-06-24T08:24:12;3.78;;;1.70;;
17127;SDS011;8679;50.842;4.322;2023-06-24T08:26:38;3.80;;;0.88;;
17127;SDS011;8679;50.842;4.322;2023-06-24T08:29:03;1.30;;;0.88;;
17127;SDS011;8679;50.842;4.322;2023-06-24T08:31:29;0.77;;;0.73;;
17127;SDS011;8679;50.842;4.322;2023-06-24T08:33:56;0.88;;;0.57;;
17127;SDS011;8679;50.842;4.322;2023-06-24T08:36:26;1.30;;;0.90;;
17127;SDS011;8679;50.842;4.322;2023-06-24T08:38:53;2.05;;;0.68;;
17127;SDS011;8679;50.842;4.322;2023-06-24T08:41:18;0.63;;;0.50;;
17127;SDS011;8679;50.842;4.322;2023-06-24T08:43:44;0.40;;;0.40;;
17127;SDS011;8679;50.842;4.322;2023-06-24T08:46:10;1.15;;;0.70;;
17127;SDS011;8679;50.842;4.322;2023-06-24T08:48:38;0.98;;;0.88;;
17127;SDS011;8679;50.842;4.322;2023-06-24T08:51:07;0.90;;;0.73;;
17127;SDS011;8679;50.842;4.322;2023-06-24T08:53:34;0.90;;;0.63;;
17127;SDS011;8679;50.842;4.322;2023-06-24T08:56:02;1.30;;;0.60;;
17127;SDS011;8679;50.842;4.322;2023-06-24T08:58:29;0.75;;;0.68;;
17127;SDS011;8679;50.842;4.322;2023-06-24T09:00:55;0.70;;;0.60;;
17127;SDS011;8679;50.842;4.322;2023-06-24T09:03:21;1.10;;;0.57;;
17127;SDS011;8679;50.842;4.322;2023-06-24T09:05:47;2.50;;;0.80;;
17127;SDS011;8679;50.842;4.322;2023-06-24T09:08:13;2.05;;;0.80;;
17127;SDS011;8679;50.842;4.322;2023-06-24T09:10:41;4.72;;;0.93;;
17127;SDS011;8679;50.842;4.322;2023-06-24T09:13:07;0.68;;;0.60;;
17127;SDS011;8679;50.842;4.322;2023-06-24T09:15:36;1.17;;;0.70;;
17127;SDS011;8679;50.842;4.322;2023-06-24T09:18:03;1.10;;;0.98;;
17127;SDS011;8679;50.842;4.322;2023-06-24T09:20:30;0.80;;;0.60;;
17127;SDS011;8679;50.842;4.322;2023-06-24T09:22:58;1.17;;;0.55;;
17127;SDS011;8679;50.842;4.322;2023-06-24T09:25:24;0.85;;;0.65;;
17127;SDS011;8679;50.842;4.322;2023-06-24T09:27:50;0.80;;;0.40;;
17127;SDS011;8679;50.842;4.322;2023-06-24T09:30:18;1.42;;;0.80;;
17127;SDS011;8679;50.842;4.322;2023-06-24T09:32:46;1.38;;;0.65;;
17127;SDS011;8679;50.842;4.322;2023-06-24T09:35:13;2.75;;;0.75;;
17127;SDS011;8679;50.842;4.322;2023-06-24T09:37:39;0.57;;;0.47;;
17127;SDS011;8679;50.842;4.322;2023-06-24T09:40:05;1.20;;;0.75;;
17127;SDS011;8679;50.842;4.322;2023-06-24T09:42:52;1.25;;;0.73;;
17127;SDS011;8679;50.842;4.322;2023-06-24T09:45:24;1.40;;;0.80;;
17127;SDS011;8679;50.842;4.322;2023-06-24T09:47:52;1.17;;;1.08;;
17127;SDS011;8679;50.842;4.322;2023-06-24T09:50:21;0.90;;;0.60;;
17127;SDS011;8679;50.842;4.322;2023-06-24T09:52:50;0.50;;;0.47;;
17127;SDS011;8679;50.842;4.322;2023-06-24T09:55:17;1.95;;;1.00;;
17127;SDS011;8679;50.842;4.322;2023-06-24T09:57:44;0.77;;;0.60;;
17127;SDS011;8679;50.842;4.322;2023-06-24T10:00:13;1.05;;;0.80;;
17127;SDS011;8679;50.842;4.322;2023-06-24T10:02:40;1.08;;;0.60;;
17127;SDS011;8679;50.842;4.322;2023-06-24T10:05:06;1.15;;;0.70;;
17127;SDS011;8679;50.842;4.322;2023-06-24T10:07:33;2.22;;;0.55;;
17127;SDS011;8679;50.842;4.322;2023-06-24T10:10:01;3.08;;;1.25;;
17127;SDS011;8679;50.842;4.322;2023-06-24T10:12:28;0.90;;;0.70;;
17127;SDS011;8679;50.842;4.322;2023-06-24T10:14:54;0.60;;;0.55;;
17127;SDS011;8679;50.842;4.322;2023-06-24T10:17:20;0.50;;;0.45;;
17127;SDS011;8679;50.842;4.322;2023-06-24T10:19:46;1.08;;;0.77;;
17127;SDS011;8679;50.842;4.322;2023-06-24T10:22:11;0.50;;;0.40;;
17127;SDS011;8679;50.842;4.322;2023-06-24T10:24:38;0.82;;;0.45;;
17127;SDS011;8679;50.842;4.322;2023-06-24T10:27:20;1.27;;;0.68;;
17127;SDS011;8679;50.842;4.322;2023-06-24T10:29:48;1.08;;;0.63;;
17127;SDS011;8679;50.842;4.322;2023-06-24T10:32:15;0.98;;;0.75;;
17127;SDS011;8679;50.842;4.322;2023-06-24T10:34:41;1.38;;;0.68;;
17127;SDS011;8679;50.842;4.322;2023-06-24T10:39:53;0.52;;;0.52;;
17127;SDS011;8679;50.842;4.322;2023-06-24T10:45:00;1.08;;;0.90;;
17127;SDS011;8679;50.842;4.322;2023-06-24T10:47:36;0.90;;;0.70;;
17127;SDS011;8679;50.842;4.322;2023-06-24T10:50:04;1.10;;;0.90;;
17127;SDS011;8679;50.842;4.322;2023-06-24T10:52:30;1.65;;;0.50;;
17127;SDS011;8679;50.842;4.322;2023-06-24T10:54:57;1.13;;;0.98;;
17127;SDS011;8679;50.842;4.322;2023-06-24T10:57:24;1.52;;;0.73;;
17127;SDS011;8679;50.842;4.322;2023-06-24T10:59:55;1.40;;;0.85;;
17127;SDS011;8679;50.842;4.322;2023-06-24T11:02:22;1.45;;;0.73;;
17127;SDS011;8679;50.842;4.322;2023-06-24T11:04:52;2.08;;;0.60;;
17127;SDS011;8679;50.842;4.322;2023-06-24T11:07:18;14.68;;;1.23;;
17127;SDS011;8679;50.842;4.322;2023-06-24T11:09:51;1.00;;;0.70;;
17127;SDS011;8679;50.842;4.322;2023-06-24T11:12:18;0.70;;;0.50;;
17127;SDS011;8679;50.842;4.322;2023-06-24T11:14:48;0.98;;;0.70;;
17127;SDS011;8679;50.842;4.322;2023-06-24T11:17:14;2.47;;;0.77;;
17127;SDS011;8679;50.842;4.322;2023-06-24T11:19:39;0.70;;;0.55;;
17127;SDS011;8679;50.842;4.322;2023-06-24T11:22:06;1.45;;;1.15;;
17127;SDS011;8679;50.842;4.322;2023-06-24T11:24:32;0.40;;;0.32;;
17127;SDS011;8679;50.842;4.322;2023-06-24T11:26:59;1.27;;;0.80;;
17127;SDS011;8679;50.842;4.322;2023-06-24T11:29:28;1.33;;;0.77;;
17127;SDS011;8679;50.842;4.322;2023-06-24T11:31:55;0.32;;;0.32;;
17127;SDS011;8679;50.842;4.322;2023-06-24T11:34:21;0.73;;;0.60;;
17127;SDS011;8679;50.842;4.322;2023-06-24T11:36:47;1.70;;;0.68;;
17127;SDS011;8679;50.842;4.322;2023-06-24T11:39:23;0.65;;;0.50;;
17127;SDS011;8679;50.842;4.322;2023-06-24T11:41:50;0.98;;;0.60;;
17127;SDS011;8679;50.842;4.322;2023-06-24T11:44:17;0.40;;;0.40;;
17127;SDS011;8679;50.842;4.322;2023-06-24T11:46:44;1.20;;;0.88;;
17127;SDS011;8679;50.842;4.322;2023-06-24T11:49:10;0.90;;;0.60;;
17127;SDS011;8679;50.842;4.322;2023-06-24T11:51:35;2.28;;;0.63;;
17127;SDS011;8679;50.842;4.322;2023-06-24T11:54:02;0.85;;;0.73;;
17127;SDS011;8679;50.842;4.322;2023-06-24T11:56:36;0.73;;;0.73;;
17127;SDS011;8679;50.842;4.322;2023-06-24T11:59:05;0.70;;;0.47;;
17127;SDS011;8679;50.842;4.322;2023-06-24T12:01:32;0.65;;;0.60;;
17127;SDS011;8679;50.842;4.322;2023-06-24T12:04:01;1.60;;;0.90;;
17127;SDS011;8679;50.842;4.322;2023-06-24T12:06:38;1.65;;;0.63;;
17127;SDS011;8679;50.842;4.322;2023-06-24T12:09:05;0.90;;;0.68;;
17127;SDS011;8679;50.842;4.322;2023-06-24T12:11:31;0.88;;;0.57;;
17127;SDS011;8679;50.842;4.322;2023-06-24T12:13:56;0.60;;;0.60;;
17127;SDS011;8679;50.842;4.322;2023-06-24T12:16:22;0.75;;;0.50;;
17127;SDS011;8679;50.842;4.322;2023-06-24T12:18:49;0.90;;;0.80;;
17127;SDS011;8679;50.842;4.322;2023-06-24T12:21:15;1.48;;;0.70;;
17127;SDS011;8679;50.842;4.322;2023-06-24T12:23:41;0.90;;;0.70;;
17127;SDS011;8679;50.842;4.322;2023-06-24T12:26:06;0.60;;;0.60;;
17127;SDS011;8679;50.842;4.322;2023-06-24T12:28:32;1.15;;;0.60;;
17127;SDS011;8679;50.842;4.322;2023-06-24T12:30:58;0.40;;;0.40;;
17127;SDS011;8679;50.842;4.322;2023-06-24T12:33:23;1.40;;;0.50;;
17127;SDS011;8679;50.842;4.322;2023-06-24T12:35:49;0.50;;;0.40;;
17127;SDS011;8679;50.842;4.322;2023-06-24T12:38:15;2.67;;;1.15;;
17127;SDS011;8679;50.842;4.322;2023-06-24T12:40:41;1.27;;;0.52;;
17127;SDS011;8679;50.842;4.322;2023-06-24T12:43:07;0.80;;;0.68;;
17127;SDS011;8679;50.842;4.322;2023-06-24T12:45:32;1.10;;;0.70;;
17127;SDS011;8679;50.842;4.322;2023-06-24T12:47:58;1.38;;;0.60;;
17127;SDS011;8679;50.842;4.322;2023-06-24T12:50:24;0.50;;;0.50;;
17127;SDS011;8679;50.842;4.322;2023-06-24T12:52:50;0.95;;;0.82;;
17127;SDS011;8679;50.842;4.322;2023-06-24T12:55:16;1.95;;;0.63;;
17127;SDS011;8679;50.842;4.322;2023-06-24T12:57:42;1.00;;;0.60;;
17127;SDS011;8679;50.842;4.322;2023-06-24T13:00:08;0.77;;;0.50;;
17127;SDS011;8679;50.842;4.322;2023-06-24T13:02:34;1.27;;;0.75;;
17127;SDS011;8679;50.842;4.322;2023-06-24T13:05:01;0.75;;;0.60;;
17127;SDS011;8679;50.842;4.322;2023-06-24T13:07:27;0.50;;;0.40;;
17127;SDS011;8679;50.842;4.322;2023-06-24T13:09:52;0.60;;;0.50;;
17127;SDS011;8679;50.842;4.322;2023-06-24T13:12:19;0.55;;;0.40;;
17127;SDS011;8679;50.842;4.322;2023-06-24T13:14:45;0.88;;;0.73;;
17127;SDS011;8679;50.842;4.322;2023-06-24T13:17:11;0.90;;;0.57;;
17127;SDS011;8679;50.842;4.322;2023-06-24T13:19:36;1.25;;;0.80;;
17127;SDS011;8679;50.842;4.322;2023-06-24T13:22:02;1.23;;;0.98;;
17127;SDS011;8679;50.842;4.322;2023-06-24T13:24:27;1.85;;;0.60;;
17127;SDS011;8679;50.842;4.322;2023-06-24T13:26:53;0.80;;;0.55;;
17127;SDS011;8679;50.842;4.322;2023-06-24T13:29:19;1.17;;;0.40;;
17127;SDS011;8679;50.842;4.322;2023-06-24T13:31:47;0.75;;;0.70;;
17127;SDS011;8679;50.842;4.322;2023-06-24T13:34:13;1.15;;;0.80;;
17127;SDS011;8679;50.842;4.322;2023-06-24T13:36:38;0.90;;;0.73;;
17127;SDS011;8679;50.842;4.322;2023-06-24T13:39:05;0.63;;;0.63;;
17127;SDS011;8679;50.842;4.322;2023-06-24T13:41:32;0.98;;;0.70;;
17127;SDS011;8679;50.842;4.322;2023-06-24T13:44:01;0.85;;;0.63;;
17127;SDS011;8679;50.842;4.322;2023-06-24T13:46:28;1.77;;;0.68;;
17127;SDS011;8679;50.842;4.322;2023-06-24T13:48:54;0.90;;;0.70;;
17127;SDS011;8679;50.842;4.322;2023-06-24T13:51:21;1.92;;;1.40;;
17127;SDS011;8679;50.842;4.322;2023-06-24T13:53:51;1.38;;;0.65;;
17127;SDS011;8679;50.842;4.322;2023-06-24T13:56:18;0.80;;;0.65;;
17127;SDS011;8679;50.842;4.322;2023-06-24T13:58:44;0.80;;;0.50;;
17127;SDS011;8679;50.842;4.322;2023-06-24T14:01:10;0.80;;;0.65;;
17127;SDS011;8679;50.842;4.322;2023-06-24T14:03:36;1.75;;;0.90;;
17127;SDS011;8679;50.842;4.322;2023-06-24T14:06:02;1.83;;;0.95;;
17127;SDS011;8679;50.842;4.322;2023-06-24T14:08:29;0.63;;;0.60;;
17127;SDS011;8679;50.842;4.322;2023-06-24T14:10:55;1.83;;;0.75;;
17127;SDS011;8679;50.842;4.322;2023-06-24T14:13:22;1.02;;;0.65;;
17127;SDS011;8679;50.842;4.322;2023-06-24T14:15:47;0.90;;;0.77;;
17127;SDS011;8679;50.842;4.322;2023-06-24T14:18:13;0.52;;;0.43;;
17127;SDS011;8679;50.842;4.322;2023-06-24T14:20:39;0.80;;;0.60;;
17127;SDS011;8679;50.842;4.322;2023-06-24T14:23:05;0.75;;;0.57;;
17127;SDS011;8679;50.842;4.322;2023-06-24T14:25:30;1.23;;;0.73;;
17127;SDS011;8679;50.842;4.322;2023-06-24T14:27:56;1.25;;;0.68;;
17127;SDS011;8679;50.842;4.322;2023-06-24T14:30:22;1.10;;;0.65;;
17127;SDS011;8679;50.842;4.322;2023-06-24T14:32:48;2.00;;;0.70;;
17127;SDS011;8679;50.842;4.322;2023-06-24T14:35:13;1.50;;;0.80;;
17127;SDS011;8679;50.842;4.322;2023-06-24T14:37:39;0.75;;;0.70;;
17127;SDS011;8679;50.842;4.322;2023-06-24T14:40:07;0.63;;;0.50;;
17127;SDS011;8679;50.842;4.322;2023-06-24T14:42:33;1.05;;;0.75;;
17127;SDS011;8679;50.842;4.322;2023-06-24T14:45:00;1.20;;;0.80;;
17127;SDS011;8679;50.842;4.322;2023-06-24T14:47:26;1.30;;;0.68;;
17127;SDS011;8679;50.842;4.322;2023-06-24T14:49:51;0.70;;;0.70;;
17127;SDS011;8679;50.842;4.322;2023-06-24T14:52:17;0.60;;;0.47;;
17127;SDS011;8679;50.842;4.322;2023-06-24T14:54:43;0.50;;;0.50;;
17127;SDS011;8679;50.842;4.322;2023-06-24T14:57:08;1.10;;;0.65;;
17127;SDS011;8679;50.842;4.322;2023-06-24T14:59:34;0.75;;;0.50;;
17127;SDS011;8679;50.842;4.322;2023-06-24T15:01:59;0.63;;;0.47;;
17127;SDS011;8679;50.842;4.322;2023-06-24T15:04:25;1.58;;;0.90;;
17127;SDS011;8679;50.842;4.322;2023-06-24T15:06:51;3.35;;;1.23;;
17127;SDS011;8679;50.842;4.322;2023-06-24T15:09:16;1.30;;;0.88;;
17127;SDS011;8679;50.842;4.322;2023-06-24T15:11:42;1.13;;;0.60;;